Date,TemperatureHighF,TemperatureAvgF,TemperatureLowF,DewpointHighF,DewpointAvgF,DewpointLowF,HumidityHigh,HumidityAvg,HumidityLow,PressureMaxIn,PressureMinIn,WindSpeedMaxMPH,WindSpeedAvgMPH,GustSpeedMaxMPH,PrecipitationSumIn
2013-1-1,55.8,51.0,45.2,51.8,47.5,41.9,97,88,78,30.15,29.89,2,0,4,0.11
2013-1-2,60.6,54.5,50.3,53.3,51.5,48.4,98,90,76,30.10,29.87,2,1,5,0.08
2013-1-3,49.5,46.4,39.7,47.6,43.9,38.2,96,91,79,30.25,30.05,4,0,5,0.02
2013-1-4,53.4,42.5,32.1,38.8,34.3,27.2,97,75,48,30.35,30.24,6,1,11,0.00
2013-1-5,53.7,41.4,28.5,38.0,28.4,24.3,87,62,36,30.40,30.25,2,0,5,0.00
2013-1-6,51.0,46.5,40.8,45.7,40.3,34.2,90,79,62,30.24,30.06,6,1,9,0.01
2013-1-7,54.2,42.5,32.8,36.9,34.3,31.3,96,75,46,30.39,30.20,4,1,8,0.00
2013-1-8,53.3,45.1,37.3,44.7,39.3,33.2,88,80,68,30.40,30.31,3,0,5,0.00
2013-1-9,69.7,55.7,43.2,57.5,49.0,40.8,92,79,58,30.42,30.32,3,1,5,0.00
2013-1-10,73.5,61.8,52.0,58.5,54.3,50.0,96,78,51,30.41,30.26,5,2,8,0.01
2013-1-11,72.5,64.0,58.8,65.2,61.6,57.8,98,92,77,30.26,30.09,4,1,7,0.00
2013-1-12,78.7,67.5,59.9,64.0,61.0,59.0,98,81,56,30.14,30.03,3,0,10,0.00
2013-1-13,76.2,67.2,60.2,63.9,61.3,58.2,96,82,65,30.11,30.00,6,1,10,0.00
2013-1-14,77.4,68.3,62.7,65.7,61.6,59.1,90,80,62,30.10,30.01,4,1,15,0.00
2013-1-15,74.8,67.6,59.3,61.9,60.4,57.6,95,78,62,30.08,29.94,4,1,7,0.00
2013-1-16,68.2,64.0,57.9,65.9,61.2,57.1,97,91,76,29.96,29.88,3,1,7,0.40
2013-1-17,68.5,56.0,40.6,65.5,54.3,38.7,98,94,84,30.14,29.65,11,2,19,0.83
2013-1-18,53.2,41.0,31.0,38.5,32.6,27.9,98,75,39,30.47,30.15,3,1,9,0.00
2013-1-19,59.0,44.5,31.5,38.6,32.0,25.5,83,63,36,30.47,30.20,3,1,9,0.00
2013-1-20,63.9,50.0,37.9,40.0,37.8,34.8,92,66,40,30.19,30.03,7,1,11,0.00
2013-1-21,61.4,48.8,34.8,38.4,33.4,24.8,92,59,31,30.07,29.97,8,2,15,0.00
2013-1-22,48.5,41.2,33.6,24.0,19.9,17.1,58,43,29,30.22,30.05,6,2,14,0.00
2013-1-23,160.0,28.2,0.0,99.9,42.4,0.0,70,51,46,30.35,30.18,8,1,13,0.00
2013-1-24,61.3,49.4,33.4,42.9,31.3,11.1,80,53,22,30.42,30.10,10,3,16,0.00
2013-1-25,36.0,32.3,27.9,24.7,16.6,8.8,65,52,39,30.45,30.14,4,1,6,0.00
2013-1-26,59.2,44.2,34.0,39.3,32.1,23.1,78,64,39,30.28,30.10,6,1,8,0.00
2013-1-27,52.0,42.6,31.3,32.8,29.8,26.0,87,62,42,30.50,30.28,4,2,8,0.00
2013-1-28,57.7,46.3,38.9,48.5,39.6,29.5,95,78,58,30.44,30.27,4,1,4,0.00
2013-1-29,75.4,58.8,42.7,61.9,53.5,41.1,97,84,62,30.27,30.02,4,1,8,0.00
2013-1-30,75.9,66.6,50.3,65.1,61.4,47.5,95,84,62,30.02,29.47,17,4,25,1.07
2013-1-31,51.3,44.1,37.1,47.4,29.8,22.1,92,59,33,30.14,29.66,14,4,24,0.01
2013-2-1,48.4,41.1,32.3,30.7,19.7,7.7,69,45,19,30.34,30.07,8,2,20,0.00
2013-2-2,141.0,42.3,24.5,99.9,19.9,10.2,81,45,21,30.36,30.08,10,1,15,0.00
2013-2-3,58.4,46.4,36.6,38.9,33.2,23.5,89,64,27,30.08,29.90,11,2,24,0.00
2013-2-4,51.3,42.2,31.8,32.8,28.9,24.2,86,61,39,30.12,30.02,2,0,5,0.00
2013-2-5,63.3,50.6,37.5,48.6,40.4,30.6,85,69,54,30.03,29.93,8,1,18,0.00
2013-2-6,70.4,56.1,46.3,48.3,41.6,32.5,96,64,28,30.14,29.99,5,1,9,0.00
2013-2-7,54.5,46.8,43.7,45.3,42.6,35.8,96,86,49,30.14,29.86,5,2,13,1.30
2013-2-8,60.5,48.7,42.5,50.4,44.9,41.1,96,87,68,30.08,29.84,8,2,12,0.00
2013-2-9,62.4,45.7,32.1,41.5,30.3,22.5,93,60,22,30.29,30.08,5,1,7,0.00
2013-2-10,64.2,52.6,40.1,54.3,41.0,28.0,95,65,48,30.38,30.09,7,2,11,0.23
2013-2-11,66.6,59.2,54.4,62.9,57.6,53.3,97,95,86,30.17,30.00,6,2,13,0.47
2013-2-12,61.4,53.5,47.8,53.6,48.3,42.9,97,84,52,30.08,29.84,3,0,6,0.29
2013-2-13,53.7,49.3,44.9,52.2,47.1,41.6,98,92,77,29.86,29.69,7,1,19,0.13
2013-2-14,51.9,42.6,33.8,41.2,37.8,32.5,97,84,62,30.07,29.87,5,0,6,0.00
2013-2-15,63.3,48.1,34.3,43.8,36.6,32.3,98,69,32,30.09,29.93,5,1,9,0.00
2013-2-16,48.7,40.5,31.5,40.3,31.5,16.0,95,72,34,30.05,29.80,11,2,20,0.18
2013-2-17,46.7,34.9,26.1,20.0,14.6,9.7,65,45,22,30.29,30.05,9,2,18,0.00
2013-2-18,57.1,42.5,27.8,27.8,22.6,16.7,72,47,28,30.39,30.21,4,1,8,0.00
2013-2-19,55.0,46.0,39.7,48.2,39.3,28.3,96,78,52,30.22,29.95,6,2,14,0.28
2013-2-20,58.1,45.3,30.9,28.6,23.3,19.5,73,44,22,30.14,30.04,5,1,8,0.00
2013-2-21,66.6,49.3,34.3,34.8,26.9,20.2,74,44,22,30.18,30.02,5,1,7,0.00
2013-2-22,52.0,42.3,38.7,39.4,37.8,33.5,97,86,49,30.16,30.07,6,1,10,0.30
2013-2-23,45.7,42.0,38.2,44.6,41.2,37.4,98,97,96,30.08,29.83,3,1,6,1.32
2013-2-24,67.0,53.2,44.3,48.7,42.4,36.2,98,72,32,29.98,29.86,6,1,8,0.00
2013-2-25,49.5,45.4,39.1,40.7,34.7,29.8,90,67,50,30.06,29.93,5,2,9,0.01
2013-2-26,49.9,43.2,37.3,49.1,42.1,35.7,97,96,91,29.94,29.57,5,2,10,0.81
2013-2-27,60.8,48.2,37.3,43.0,38.8,35.7,97,72,44,29.86,29.73,9,2,15,0.00
2013-2-28,52.5,44.6,36.3,39.8,33.5,28.1,87,66,47,29.91,29.77,13,3,17,0.00
2013-3-1,54.7,41.1,30.2,33.7,29.6,26.5,87,66,42,29.96,29.84,9,1,15,0.00
2013-3-2,44.4,37.8,31.2,39.7,33.0,28.0,92,83,71,29.94,29.85,6,1,12,0.04
2013-3-3,47.9,37.6,30.5,28.3,25.4,21.5,86,64,37,30.03,29.91,7,1,13,0.00
2013-3-4,58.9,41.2,24.0,30.4,22.4,19.5,86,51,23,30.19,30.02,6,1,8,0.00
2013-3-5,69.0,54.2,40.9,56.4,43.6,30.5,94,68,53,30.08,29.63,8,2,24,0.11
2013-3-6,49.0,41.5,34.3,36.8,27.3,21.4,78,58,43,30.11,29.73,14,5,24,0.00
2013-3-7,59.7,49.8,30.5,33.2,31.4,26.8,86,51,34,30.22,30.12,6,1,10,0.00
2013-3-8,62.5,46.0,32.0,32.2,26.7,20.2,83,52,20,30.30,30.16,6,1,12,0.00
2013-3-9,65.8,50.6,37.5,35.8,30.7,24.4,70,48,28,30.33,30.19,4,1,6,0.00
2013-3-10,70.3,56.4,44.6,48.5,39.9,34.3,77,57,29,30.26,30.10,6,2,10,0.00
2013-3-11,69.7,59.3,47.3,56.2,48.7,37.6,81,69,54,30.14,29.79,6,3,10,0.01
2013-3-12,67.8,58.9,51.3,58.2,49.8,37.1,96,75,40,29.96,29.74,6,2,14,0.38
2013-3-13,60.3,49.4,39.4,36.7,29.5,21.1,78,50,22,30.15,29.97,12,3,22,0.00
2013-3-14,55.8,42.0,30.4,99.9,35.4,20.8,70,50,27,30.30,30.15,7,1,11,0.00
2013-3-15,72.1,53.4,33.1,41.8,32.3,22.3,77,46,31,30.21,29.95,11,2,14,0.00
2013-3-16,79.4,64.7,54.1,47.3,42.9,38.7,69,48,24,29.96,29.79,11,2,18,0.00
2013-3-17,75.4,63.9,54.0,55.4,50.0,42.8,84,62,44,29.97,29.86,5,1,12,0.00
2013-3-18,63.2,56.9,50.3,57.4,51.8,45.3,92,83,77,30.02,29.78,3,1,10,0.03
2013-3-19,71.1,56.3,46.8,53.0,39.9,20.8,98,64,15,30.00,29.83,12,2,15,0.00
2013-3-20,60.7,50.5,40.8,32.8,25.6,18.0,59,40,22,30.09,29.82,4,1,9,0.00
2013-3-21,53.0,43.9,36.7,28.5,20.5,10.4,70,43,18,29.97,29.81,15,2,20,0.00
2013-3-22,48.9,41.3,34.2,33.9,22.7,17.2,74,48,33,30.08,29.97,4,1,7,0.00
2013-3-23,50.5,44.2,41.8,49.7,38.3,31.7,97,81,63,30.03,29.90,4,1,8,0.74
2013-3-24,48.8,46.3,44.3,47.7,45.2,43.1,97,96,93,29.86,29.53,7,2,12,1.38
2013-3-25,48.2,42.9,36.9,44.0,29.0,22.9,97,59,41,29.98,29.59,14,5,24,0.00
2013-3-26,49.5,39.6,30.1,28.2,26.3,24.5,81,60,42,30.20,29.96,7,3,14,0.00
2013-3-27,57.3,41.9,28.0,29.3,26.3,23.2,87,58,28,30.29,30.17,5,1,12,0.00
2013-3-28,61.8,46.5,32.1,29.1,26.2,22.5,77,49,23,30.32,30.17,7,1,12,0.00
2013-3-29,65.7,52.9,38.7,37.0,29.2,24.3,65,42,23,30.33,30.17,4,1,8,0.00
2013-3-30,72.9,59.8,49.0,52.1,43.3,36.0,81,56,37,30.19,30.00,10,1,12,0.01
2013-3-31,74.4,61.9,55.1,60.7,55.8,51.3,96,82,51,30.02,29.82,13,1,15,0.18
2013-4-1,75.7,64.1,57.9,60.2,52.7,38.6,98,72,28,29.93,29.80,9,2,16,0.72
2013-4-2,72.2,60.2,47.3,44.4,40.3,37.0,76,50,29,30.10,29.93,6,1,14,0.00
2013-4-3,61.4,55.4,47.9,43.8,33.5,27.3,79,44,32,30.20,30.04,5,1,10,0.01
2013-4-4,52.6,44.8,38.9,43.2,40.9,37.9,96,87,58,30.16,29.92,5,2,9,0.51
2013-4-5,62.5,47.8,36.6,48.7,42.6,35.6,97,83,60,30.01,29.89,4,1,11,0.00
2013-4-6,74.9,57.8,41.7,45.9,40.1,32.5,95,59,22,30.18,30.01,5,1,7,0.00
2013-4-7,76.4,62.2,46.9,54.4,49.4,41.1,94,65,42,30.19,30.04,5,1,9,0.00
2013-4-8,81.4,67.9,55.6,57.3,54.7,53.1,93,66,38,30.13,30.01,5,1,9,0.00
2013-4-9,85.4,70.9,58.5,62.5,58.3,55.8,93,67,40,30.16,30.05,4,1,6,0.00
2013-4-10,86.7,72.7,60.9,62.0,60.0,57.3,93,67,41,30.09,29.91,6,1,9,0.00
2013-4-11,81.9,70.9,62.6,68.8,65.0,60.2,95,83,61,29.93,29.69,8,2,8,0.00
2013-4-12,79.9,70.2,59.9,68.1,59.2,42.9,97,72,28,29.81,29.63,13,2,17,0.08
2013-4-13,79.4,62.9,48.1,45.5,43.2,41.0,80,52,27,29.96,29.82,5,1,9,0.00
2013-4-14,70.6,61.3,52.6,59.5,51.1,40.7,94,70,46,30.03,29.77,8,1,14,0.08
2013-4-15,76.2,65.1,59.9,63.8,60.4,58.1,95,85,63,30.11,29.90,3,0,5,0.00
2013-4-16,82.0,69.6,60.0,99.9,61.6,58.9,98,77,48,30.22,30.10,3,1,6,0.00
2013-4-17,86.5,71.8,58.9,64.4,61.3,57.5,96,72,43,30.18,30.04,4,1,5,0.00
2013-4-18,83.3,71.4,60.8,68.5,62.3,57.6,96,74,51,30.07,29.91,4,1,8,0.00
2013-4-19,80.8,68.0,50.4,69.3,63.8,48.7,96,87,63,29.92,29.75,11,2,14,0.56
2013-4-20,68.0,54.0,42.7,48.7,41.5,34.6,96,68,30,30.19,29.89,4,1,8,0.00
2013-4-21,70.2,56.4,43.7,46.6,43.0,40.0,92,64,35,30.33,30.19,4,1,8,0.00
2013-4-22,68.6,56.3,47.4,44.5,40.2,35.9,77,57,34,30.30,30.13,4,1,10,0.00
2013-4-23,75.4,58.1,42.9,53.2,46.4,37.9,86,67,43,30.18,30.05,3,1,7,0.00
2013-4-24,78.5,65.7,54.7,59.5,56.2,52.0,95,74,49,30.11,29.98,4,1,12,0.00
2013-4-25,79.2,68.6,58.0,60.8,54.5,38.4,91,64,31,30.19,30.02,5,1,9,0.00
2013-4-26,76.4,63.0,50.6,55.4,46.5,38.9,72,56,38,30.35,30.19,5,1,9,0.00
2013-4-27,66.6,59.0,51.0,58.9,53.8,47.5,96,84,66,30.31,30.16,3,0,5,0.49
2013-4-28,73.1,61.5,54.5,65.5,58.5,50.5,97,90,76,30.17,29.96,8,1,11,1.67
2013-4-29,71.5,63.7,59.5,66.5,61.7,58.5,98,94,76,30.02,29.90,3,0,9,0.28
2013-4-30,76.8,65.5,57.1,65.9,61.2,56.3,98,87,63,30.06,29.92,4,0,6,0.00
2013-5-1,69.3,62.0,57.0,60.5,57.8,55.9,97,87,70,30.17,30.06,3,1,5,0.00
2013-5-2,68.4,63.4,60.0,61.6,59.6,57.4,96,88,77,30.17,30.09,3,1,6,0.00
2013-5-3,65.1,60.4,56.9,60.7,57.5,54.3,96,90,82,30.09,29.97,2,1,6,0.09
2013-5-4,61.0,56.9,53.5,57.1,53.1,47.9,97,87,72,29.98,29.83,4,1,7,0.34
2013-5-5,69.5,59.6,55.9,66.0,58.5,55.1,98,96,84,29.85,29.73,6,1,7,1.03
2013-5-6,70.3,58.1,50.9,57.3,51.4,48.9,98,80,49,29.89,29.76,7,1,12,0.00
2013-5-7,69.2,58.0,50.3,60.8,52.6,48.1,96,83,58,29.93,29.83,3,0,8,0.23
2013-5-8,79.4,64.7,50.4,59.1,54.0,49.3,97,72,40,29.99,29.89,4,1,16,0.00
2013-5-9,85.2,70.4,57.1,61.2,58.0,55.3,95,69,37,30.05,29.95,4,1,11,0.00
2013-5-10,86.5,72.8,61.5,64.8,61.2,57.9,90,69,42,30.03,29.90,6,0,11,0.00
2013-5-11,80.2,71.2,61.4,66.9,63.6,59.7,94,78,62,29.94,29.80,6,1,14,0.00
2013-5-12,77.4,67.9,57.9,62.7,52.9,41.1,95,63,31,29.99,29.80,9,1,15,0.00
2013-5-13,72.9,59.8,46.7,43.6,40.1,35.0,79,51,25,30.14,29.99,5,1,11,0.00
2013-5-14,77.2,62.4,46.6,52.5,42.5,35.4,74,51,26,30.23,30.08,4,1,10,0.00
2013-5-15,89.6,73.0,58.2,62.2,56.4,49.2,76,58,38,30.10,29.93,6,1,12,0.00
2013-5-16,84.5,72.3,62.9,66.4,62.1,57.9,86,71,53,30.01,29.92,4,0,9,0.00
2013-5-17,88.0,73.6,62.4,67.0,61.6,57.9,88,68,41,30.06,29.96,5,1,9,0.00
2013-5-18,79.3,71.2,66.3,68.4,65.2,60.2,93,82,67,30.07,29.99,2,1,5,0.03
2013-5-19,79.8,71.3,66.8,70.6,67.6,65.6,96,89,70,30.06,29.97,3,1,7,0.04
2013-5-20,82.6,72.1,66.4,71.4,68.0,65.5,97,88,65,30.05,29.98,2,0,4,0.00
2013-5-22,85.3,78.6,71.4,68.9,67.2,66.3,84,69,55,29.89,29.82,2,1,5,0.00
2013-5-23,84.7,74.3,66.3,69.8,66.0,59.5,97,77,49,29.90,29.79,6,1,11,0.06
2013-5-24,82.1,70.3,59.0,59.1,49.7,34.5,88,53,19,30.12,29.84,8,1,20,0.00
2013-5-25,80.3,64.1,46.2,53.7,44.8,37.4,90,55,24,30.26,30.12,4,1,10,0.00
2013-5-26,82.7,68.5,54.9,57.2,52.0,47.8,88,59,32,30.22,30.10,3,0,6,0.00
2013-5-27,89.5,73.4,59.3,63.0,58.0,52.9,86,61,37,30.19,30.07,3,1,6,0.00
2013-5-28,87.7,74.9,63.8,66.6,63.2,58.4,92,69,45,30.17,30.06,3,1,7,0.00
2013-5-29,88.6,74.5,61.1,66.6,62.8,59.6,96,70,42,30.18,30.07,3,1,5,0.00
2013-5-30,89.3,75.7,62.7,68.9,64.8,61.2,97,72,43,30.20,30.06,3,1,5,0.00
2013-5-31,88.8,77.8,68.3,70.4,68.1,65.6,96,74,49,30.16,30.01,3,1,6,0.00
2013-6-1,90.7,77.9,68.2,70.7,67.6,65.2,96,73,43,30.08,29.94,3,1,6,0.00
2013-6-2,87.8,76.6,69.4,73.0,69.5,66.5,97,80,55,30.02,29.81,4,1,11,0.77
2013-6-3,87.3,75.6,69.4,74.2,71.2,68.5,98,87,59,29.88,29.79,5,1,10,0.54
2013-6-4,89.3,76.4,68.5,75.1,70.6,67.6,98,84,54,29.96,29.86,3,0,5,0.00
2013-6-5,83.3,73.6,68.8,74.3,71.0,67.4,97,92,74,29.98,29.88,4,1,7,0.13
2013-6-6,76.5,71.3,69.3,72.2,70.1,68.6,98,96,85,29.89,29.68,2,0,4,0.84
2013-6-7,85.9,73.3,67.7,73.8,70.0,67.1,98,90,63,29.80,29.54,6,1,12,1.37
2013-6-8,86.4,75.0,67.8,71.2,68.9,67.2,98,83,56,30.02,29.77,7,1,10,0.00
2013-6-9,81.1,73.0,69.5,76.0,70.9,67.9,98,93,80,30.06,29.98,4,0,7,0.72
2013-6-10,80.5,72.9,70.3,75.6,71.7,69.7,99,96,84,30.01,29.89,6,1,18,0.42
2013-6-11,90.8,78.3,69.8,77.4,73.0,69.2,99,85,62,29.97,29.86,7,1,10,0.00
2013-6-12,96.2,82.5,70.5,76.7,73.4,69.3,97,77,50,29.95,29.86,4,0,6,0.00
2013-6-13,93.8,83.6,73.6,76.3,74.0,71.3,94,75,49,29.86,29.63,10,2,20,0.03
2013-6-14,88.2,76.2,66.7,71.4,64.8,59.2,97,71,39,29.95,29.69,4,0,6,0.00
2013-6-15,88.1,74.3,62.6,66.3,62.2,58.3,90,69,41,30.07,29.95,2,0,5,0.00
2013-6-16,89.1,76.3,66.1,70.8,66.9,61.3,91,74,51,30.11,29.96,2,0,9,0.00
2013-6-17,91.0,76.5,69.2,73.8,69.5,65.5,96,80,55,30.02,29.88,4,1,8,0.11
2013-6-18,86.7,74.3,69.2,77.1,71.7,67.4,98,92,71,29.93,29.77,5,1,20,0.27
2013-6-19,78.8,73.4,68.4,73.7,70.9,66.6,98,92,78,30.02,29.83,2,0,5,0.01
2013-6-20,85.9,74.7,66.0,69.4,66.6,64.7,98,78,51,30.12,30.01,4,0,5,0.00
2013-6-21,86.5,74.0,64.1,66.8,64.3,62.6,96,74,49,30.18,30.08,3,0,7,0.00
2013-6-22,89.2,75.5,64.6,70.2,66.4,61.6,96,75,48,30.13,30.02,2,1,7,0.07
2013-6-23,88.2,75.9,68.6,74.5,71.4,67.7,98,87,61,30.14,30.05,4,0,5,0.00
2013-6-24,90.0,76.8,71.3,75.9,72.6,69.3,98,88,57,30.16,30.04,4,1,9,0.51
2013-6-25,89.9,76.9,69.7,76.1,72.0,69.1,99,86,63,30.10,29.96,5,0,6,0.01
2013-6-26,89.6,77.2,71.3,77.8,73.1,70.1,97,88,67,30.01,29.88,4,1,9,0.02
2013-6-27,90.1,80.4,72.6,77.5,74.2,71.7,98,82,62,29.91,29.70,7,1,17,0.10
2013-6-28,95.2,81.6,70.9,77.5,73.3,68.0,97,78,54,29.75,29.58,6,1,11,0.00
2013-6-29,88.6,76.7,70.6,75.1,71.0,68.5,97,83,61,29.67,29.60,6,1,9,0.14
2013-6-30,84.2,73.8,69.7,76.1,71.9,68.7,98,94,74,29.76,29.64,3,1,8,1.26
2013-7-1,81.7,74.0,68.8,74.6,71.4,68.2,99,92,76,29.89,29.74,3,1,5,0.17
2013-7-2,78.0,73.7,71.1,75.2,72.3,70.5,98,96,89,30.05,29.90,3,1,6,0.44
2013-7-3,81.8,74.2,70.8,76.2,72.8,70.2,98,96,80,30.12,30.04,4,0,6,1.82
2013-7-4,85.3,75.5,69.0,78.4,73.0,68.4,99,92,72,30.13,30.05,6,1,13,1.26
2013-7-5,85.8,75.8,72.1,77.7,73.9,71.5,99,94,74,30.16,30.08,3,1,5,0.80
2013-7-6,83.6,75.6,71.7,78.3,74.1,71.1,99,95,77,30.14,30.03,4,1,8,0.29
2013-7-7,85.7,76.6,72.8,78.5,74.8,71.8,99,94,76,30.12,30.01,5,1,9,1.84
2013-7-8,89.8,77.5,70.7,78.1,73.6,70.2,99,89,64,30.13,30.04,3,1,8,0.12
2013-7-9,93.2,79.5,71.5,77.7,74.3,70.9,98,85,60,30.11,29.99,2,1,9,0.12
2013-7-10,85.0,76.1,72.0,77.1,73.5,70.9,99,92,75,30.06,29.91,4,0,8,0.30
2013-7-11,82.8,74.3,72.3,75.6,72.6,71.4,98,95,79,29.92,29.82,2,0,6,0.52
2013-7-12,86.1,75.5,70.2,77.7,72.4,66.2,99,91,73,29.90,29.80,3,0,4,1.29
2013-7-13,78.6,73.3,69.2,74.3,71.3,66.9,98,94,85,30.00,29.89,3,0,4,0.09
2013-7-14,82.0,74.2,70.9,75.6,72.5,70.3,99,95,79,30.17,30.00,4,1,11,0.22
2013-7-15,87.1,76.0,71.1,78.3,73.9,70.3,99,94,74,30.21,30.14,4,0,9,1.24
2013-7-16,91.6,78.9,70.3,77.6,73.4,70.0,99,85,56,30.25,30.15,2,0,3,0.00
2013-7-17,93.4,78.7,71.5,79.4,73.9,70.5,98,86,57,30.18,30.03,2,0,6,0.00
2013-7-18,91.4,77.6,68.7,77.6,72.5,67.8,98,86,58,30.14,29.99,4,0,11,0.05
2013-7-19,91.9,79.5,71.6,76.8,73.6,70.7,98,84,57,30.06,29.92,2,0,6,0.00
2013-7-20,88.0,78.4,73.5,76.3,73.7,71.7,95,86,67,30.00,29.87,2,0,5,0.00
2013-7-21,89.7,79.0,73.8,77.7,74.5,72.2,96,87,66,29.98,29.86,4,0,7,0.00
2013-7-22,88.0,78.3,72.0,75.7,73.2,71.0,97,85,64,29.95,29.81,6,1,13,0.00
2013-7-23,89.9,80.3,73.9,76.1,73.2,71.3,93,80,57,29.84,29.73,7,1,12,0.00
2013-7-24,93.6,79.5,71.4,78.3,73.1,70.4,97,82,53,29.76,29.68,4,0,7,0.00
2013-7-25,91.4,78.8,71.0,76.8,72.3,69.7,97,82,55,29.92,29.72,3,0,5,0.00
2013-7-26,88.5,78.3,70.5,77.2,72.4,68.4,94,83,61,30.01,29.91,2,0,4,0.00
2013-7-27,86.6,77.8,73.8,78.5,73.9,71.1,96,88,72,29.95,29.82,3,1,7,0.13
2013-7-28,91.0,78.9,70.1,75.9,72.3,69.4,98,82,56,29.94,29.86,3,0,9,0.00
2013-7-29,90.1,79.5,72.0,76.9,73.7,71.0,97,84,60,30.07,29.93,5,0,6,0.00
2013-7-30,89.4,78.3,70.6,77.3,73.6,70.0,98,87,63,30.12,30.04,2,0,5,0.00
2013-7-31,80.4,75.0,72.4,77.4,73.0,70.7,98,94,88,30.07,29.93,3,0,10,0.08
2013-8-1,90.5,77.9,71.8,77.7,73.9,71.0,98,89,62,29.95,29.81,4,1,7,0.83
2013-8-2,88.1,77.0,72.9,78.5,74.7,72.3,99,93,70,29.95,29.84,1,0,4,0.00
2013-8-3,90.7,82.9,73.9,77.2,74.4,72.3,98,77,57,29.96,29.88,4,1,9,0.00
2013-8-4,92.7,80.6,73.6,78.1,74.2,71.5,95,82,56,29.94,29.85,2,0,5,0.04
2013-8-5,87.4,78.1,71.0,74.9,72.1,67.5,97,83,61,29.99,29.89,2,0,5,0.00
2013-8-6,83.5,76.1,72.1,78.2,71.8,67.3,96,87,78,29.98,29.89,2,1,4,0.02
2013-8-7,89.7,78.2,71.2,75.0,72.4,70.5,98,84,57,30.01,29.92,3,0,6,0.00
2013-8-8,91.7,79.6,72.0,76.7,73.3,70.7,96,82,54,30.00,29.92,2,0,6,0.00
2013-8-9,149.1,86.7,73.9,99.9,78.3,72.7,100,86,62,30.04,29.94,3,0,7,0.00
2013-8-10,131.8,87.0,73.5,99.9,77.3,-19.4,97,79,1,30.06,29.97,4,1,7,0.07
2013-8-11,135.9,91.3,73.2,99.9,67.2,0.0,98,70,33,30.07,29.97,5,1,9,0.00
2013-8-12,138.9,86.7,73.6,99.9,79.2,71.8,100,80,55,30.01,29.88,6,1,9,0.00
2013-8-13,92.3,81.6,73.0,76.5,74.2,71.8,96,80,56,29.91,29.77,9,1,14,0.00
2013-8-14,78.5,74.6,70.8,74.3,71.3,68.3,96,90,75,29.96,29.79,1,0,3,0.02
2013-8-15,70.8,67.9,65.7,68.1,64.8,60.6,96,90,76,30.04,29.94,2,0,6,0.24
2013-8-16,66.6,64.2,63.1,64.2,63.3,62.2,98,97,91,30.07,29.99,2,0,4,2.34
2013-8-17,67.8,65.4,63.2,67.2,64.8,62.6,99,98,97,30.10,30.02,2,0,3,0.36
2013-8-18,85.3,72.5,67.1,76.5,70.4,66.8,99,93,74,30.15,30.04,3,0,6,1.00
2013-8-19,76.6,73.2,69.1,74.5,72.2,68.5,99,97,92,30.09,30.00,2,0,4,0.80
2013-8-20,83.3,74.6,70.5,77.2,73.0,69.9,99,95,82,30.12,30.02,1,0,3,0.62
2013-8-21,146.2,70.2,71.1,99.9,80.5,-33.9,100,87,69,30.17,30.04,3,0,6,0.00
2013-8-22,149.9,71.8,69.8,99.9,85.6,-34.6,100,71,1,30.16,30.00,3,0,7,0.00
2013-8-23,149.6,73.4,70.1,99.9,80.6,69.2,100,80,55,30.03,29.89,3,0,8,0.00
2013-8-24,81.1,73.5,69.5,72.8,69.2,66.6,96,87,69,30.18,29.95,2,0,4,0.00
2013-8-25,83.0,71.3,62.8,66.2,63.7,61.3,96,79,51,30.30,30.18,3,0,5,0.00
2013-8-26,84.1,69.9,59.3,65.2,60.8,56.9,96,75,43,30.24,30.08,3,0,5,0.00
2013-8-27,88.7,74.7,63.3,72.3,66.0,57.7,90,76,53,30.10,29.95,3,0,6,0.00
2013-8-28,126.0,78.7,67.1,99.9,71.3,65.9,97,79,52,29.98,29.88,3,0,9,0.00
2013-8-29,153.6,80.9,70.4,99.9,74.5,68.9,96,81,57,29.92,29.83,4,0,6,0.00
2013-8-30,87.3,78.0,73.1,76.3,73.2,70.7,95,86,70,29.96,29.86,3,0,3,0.00
2013-8-31,73.6,73.4,72.8,71.8,71.3,70.9,95,93,92,29.90,29.88,0,0,1,0.00
2013-12-11,52.5,43.3,39.8,37.0,35.0,33.0,83,73,48,30.30,30.27,4,0,6,0.01
2013-12-12,51.4,40.2,32.0,35.0,27.5,22.0,85,63,34,30.39,30.25,8,0,8,0.00
2013-12-13,57.2,42.4,30.0,35.0,28.0,23.1,90,60,29,30.37,30.19,7,0,7,0.00
2013-12-14,58.7,49.8,44.5,57.6,45.3,35.1,97,85,66,30.21,29.79,11,2,11,1.22
2013-12-15,53.7,46.4,34.5,49.2,40.6,30.4,98,81,57,30.12,29.75,14,2,14,0.06
2013-12-16,58.2,42.2,29.0,35.9,31.8,27.5,95,70,40,30.21,30.11,8,0,9,0.00
2013-12-17,62.1,47.9,35.8,37.5,33.3,30.3,82,59,35,30.19,30.02,15,1,15,0.00
2013-12-18,54.3,44.4,36.6,35.0,26.3,20.6,63,50,28,30.28,30.07,5,1,9,0.00
2013-12-19,62.0,47.4,35.8,45.9,30.2,21.7,79,53,25,30.35,30.20,6,0,6,0.00
2013-12-20,66.3,54.8,43.9,54.7,49.8,42.0,97,84,64,30.23,30.12,10,0,10,0.00
2013-12-21,78.3,65.7,53.9,63.5,58.0,50.2,92,77,55,30.12,29.96,10,1,10,0.00
2013-12-22,74.3,68.7,64.4,66.7,65.3,63.3,97,89,76,30.02,29.94,17,2,17,0.59
2013-12-23,68.5,59.4,48.1,66.8,58.0,45.4,97,95,89,30.12,29.95,9,1,9,1.22
2013-12-24,52.1,42.2,32.1,45.4,33.0,22.3,97,73,39,30.37,30.11,12,2,12,0.00
2013-12-25,43.3,35.2,26.2,25.7,21.4,16.3,80,58,40,30.51,30.35,7,1,7,0.00
2013-12-26,54.2,41.8,34.3,37.2,33.4,24.7,91,73,45,30.36,30.22,7,0,7,0.03
2013-12-27,53.1,41.6,32.9,35.2,30.8,27.5,85,67,42,30.44,30.30,7,0,7,0.00
2013-12-28,53.0,43.0,35.1,42.0,33.5,27.0,96,71,38,30.40,30.04,5,0,5,0.52
2013-12-29,56.7,48.6,42.6,54.8,46.6,41.3,98,93,77,30.04,29.77,12,2,12,0.94
2013-12-30,54.8,46.3,38.5,45.4,42.2,37.5,97,86,66,30.15,29.94,8,0,8,0.00
2013-12-31,52.6,46.0,39.5,43.9,37.2,30.6,90,73,45,30.34,30.13,8,1,8,0.00
2014-1-1,49.0,43.4,36.7,42.5,37.2,31.9,90,79,63,30.36,30.12,1,0,1,0.00
2014-1-2,51.3,45.5,32.6,50.5,43.0,22.6,97,91,64,30.14,29.68,21,2,21,0.24